createdAt,value
2019-03-04T00:00:47.220Z,9.00
2019-03-04T00:03:17.836Z,9.00
2019-03-04T00:05:48.331Z,9.00
2019-03-04T00:08:18.863Z,9.00
2019-03-04T00:10:49.435Z,9.00
2019-03-04T00:13:19.925Z,9.00
2019-03-04T00:15:50.297Z,8.90
2019-03-04T00:18:20.117Z,8.90
2019-03-04T00:20:50.331Z,8.90
2019-03-04T00:23:20.522Z,8.90
2019-03-04T00:25:51.884Z,8.90
2019-03-04T00:28:22.588Z,8.90
2019-03-04T00:30:53.178Z,8.80
2019-03-04T00:33:23.724Z,8.80
2019-03-04T00:35:54.201Z,8.90
2019-03-04T00:38:24.717Z,8.90
2019-03-04T00:40:55.227Z,8.90
2019-03-04T00:43:25.786Z,8.90
2019-03-04T00:45:56.221Z,8.90
2019-03-04T00:48:26.712Z,8.90
2019-03-04T00:50:57.113Z,8.90
2019-03-04T00:53:27.665Z,8.80
2019-03-04T00:55:58.123Z,8.80
2019-03-04T00:58:28.283Z,8.80
2019-03-04T01:00:58.675Z,8.80
2019-03-04T01:03:29.341Z,8.80
2019-03-04T01:05:59.953Z,8.80
2019-03-04T01:08:30.635Z,8.70
2019-03-04T01:11:00.671Z,8.80
2019-03-04T01:13:31.368Z,8.70
2019-03-04T01:16:02.000Z,8.70
2019-03-04T01:18:32.240Z,8.70
2019-03-04T01:21:02.523Z,8.70
2019-03-04T01:23:32.304Z,8.70
2019-03-04T01:26:02.838Z,8.70
2019-03-04T01:28:33.373Z,8.70
2019-03-04T01:31:03.823Z,8.70
2019-03-04T01:33:34.346Z,8.70
2019-03-04T01:36:04.703Z,8.70
2019-03-04T01:38:34.827Z,8.80
2019-03-04T01:41:04.736Z,8.70
2019-03-04T01:43:35.269Z,8.80
2019-03-04T01:46:05.861Z,8.80
2019-03-04T01:48:35.798Z,8.80
2019-03-04T01:51:06.379Z,8.80
2019-03-04T01:53:36.513Z,8.80
2019-03-04T01:56:07.164Z,8.80
2019-03-04T01:58:37.639Z,8.80
2019-03-04T02:01:08.153Z,8.80
2019-03-04T02:03:38.320Z,8.80
2019-03-04T02:06:08.603Z,8.80
2019-03-04T02:08:39.305Z,8.80
2019-03-04T02:11:09.527Z,8.80
2019-03-04T02:13:40.193Z,8.80
2019-03-04T02:16:10.486Z,8.80
2019-03-04T02:18:41.085Z,8.80
2019-03-04T02:21:10.961Z,8.80
2019-03-04T02:23:41.423Z,8.80
2019-03-04T02:26:23.691Z,8.80
2019-03-04T02:28:54.269Z,8.80
2019-03-04T02:31:24.778Z,8.80
2019-03-04T02:33:54.980Z,8.70
2019-03-04T02:36:25.549Z,8.70
2019-03-04T02:38:56.037Z,8.70
2019-03-04T02:41:26.678Z,8.70
2019-03-04T02:43:56.955Z,8.70
2019-03-04T02:46:27.593Z,8.70
2019-03-04T02:48:58.256Z,8.70
2019-03-04T02:51:28.600Z,8.70
2019-03-04T02:53:59.076Z,8.70
2019-03-04T02:56:29.648Z,8.70
2019-03-04T02:59:00.168Z,8.70
2019-03-04T03:01:30.838Z,8.70
2019-03-04T03:04:01.313Z,8.70
2019-03-04T03:06:31.912Z,8.70
2019-03-04T03:09:02.730Z,8.70
2019-03-04T03:11:33.192Z,8.70
2019-03-04T03:14:03.733Z,8.70
2019-03-04T03:16:34.331Z,8.70
2019-03-04T03:19:04.801Z,8.70
2019-03-04T03:21:35.388Z,8.70
2019-03-04T03:24:05.596Z,8.70
2019-03-04T03:26:36.002Z,8.70
2019-03-04T03:29:06.599Z,8.70
2019-03-04T03:31:36.740Z,8.70
2019-03-04T03:34:06.860Z,8.70
2019-03-04T03:36:37.651Z,8.70
2019-03-04T03:39:08.410Z,8.70
2019-03-04T03:41:38.996Z,8.80
2019-03-04T03:44:09.483Z,8.80
2019-03-04T03:46:39.994Z,8.80
2019-03-04T03:49:10.360Z,8.80
2019-03-04T03:51:40.649Z,8.80
2019-03-04T03:54:11.228Z,8.70
2019-03-04T03:56:41.730Z,8.70
2019-03-04T03:59:12.289Z,8.70
2019-03-04T04:01:42.464Z,8.60
2019-03-04T04:04:12.421Z,8.60
2019-03-04T04:06:43.086Z,8.60
2019-03-04T04:09:13.704Z,8.50
2019-03-04T04:11:44.020Z,8.50
2019-03-04T04:14:14.476Z,8.50
2019-03-04T04:16:44.904Z,8.50
2019-03-04T04:19:15.164Z,8.50
2019-03-04T04:21:45.637Z,8.50
2019-03-04T04:24:16.144Z,8.40
2019-03-04T04:26:46.382Z,8.40
2019-03-04T04:29:16.534Z,8.40
2019-03-04T04:31:46.407Z,8.40
2019-03-04T04:34:16.932Z,8.40
2019-03-04T04:36:46.748Z,8.40
2019-03-04T04:39:17.358Z,8.40
2019-03-04T04:41:47.547Z,8.40
2019-03-04T04:44:18.128Z,8.40
2019-03-04T04:46:58.879Z,8.30
2019-03-04T04:49:31.522Z,8.30
2019-03-04T04:52:02.057Z,8.30
2019-03-04T04:54:32.603Z,8.30
2019-03-04T04:57:03.064Z,8.30
2019-03-04T04:59:32.975Z,8.20
2019-03-04T05:02:03.627Z,8.20
2019-03-04T05:04:34.207Z,8.20
2019-03-04T05:07:04.494Z,8.20
2019-03-04T05:09:34.894Z,8.20
2019-03-04T05:12:05.213Z,8.20
2019-03-04T05:14:35.488Z,8.20
2019-03-04T05:17:05.290Z,8.20
2019-03-04T05:19:35.469Z,8.20
2019-03-04T05:22:05.759Z,8.20
2019-03-04T05:24:35.665Z,8.10
2019-03-04T05:27:06.112Z,8.10
2019-03-04T05:29:36.620Z,8.10
2019-03-04T05:32:06.799Z,8.10
2019-03-04T05:34:37.419Z,8.10
2019-03-04T05:37:08.016Z,8.20
2019-03-04T05:39:38.499Z,8.10
2019-03-04T05:42:08.757Z,8.20
2019-03-04T05:44:39.098Z,8.20
2019-03-04T05:47:09.734Z,8.20
2019-03-04T05:49:40.331Z,8.20
2019-03-04T05:52:10.951Z,8.20
2019-03-04T05:54:41.460Z,8.20
2019-03-04T05:57:11.946Z,8.20
2019-03-04T05:59:41.842Z,8.20
2019-03-04T06:02:12.845Z,8.20
2019-03-04T06:04:45.308Z,8.20
2019-03-04T06:07:37.106Z,8.20
2019-03-04T06:10:09.604Z,8.20
2019-03-04T06:12:40.121Z,8.20
2019-03-04T06:15:14.422Z,8.20
2019-03-04T06:17:44.774Z,8.30
2019-03-04T06:20:15.980Z,8.20
2019-03-04T06:22:46.249Z,8.30
2019-03-04T06:25:18.370Z,8.30
2019-03-04T06:27:48.967Z,8.30
2019-03-04T06:30:21.811Z,8.40
2019-03-04T06:32:52.387Z,8.50
2019-03-04T06:35:22.936Z,8.50
2019-03-04T06:37:53.539Z,8.60
2019-03-04T06:40:23.997Z,8.60
2019-03-04T06:42:54.625Z,8.70
2019-03-04T06:45:25.135Z,8.60
2019-03-04T06:47:55.089Z,8.60
2019-03-04T06:50:59.737Z,8.70
2019-03-04T06:53:53.200Z,8.70
2019-03-04T06:56:40.035Z,8.70
2019-03-04T06:59:27.971Z,8.80
2019-03-04T07:02:01.594Z,8.80
2019-03-04T07:05:05.435Z,8.80
2019-03-04T07:07:35.767Z,8.80
2019-03-04T07:10:06.034Z,8.80
2019-03-04T07:12:36.543Z,8.90
2019-03-04T07:15:06.732Z,8.80
2019-03-04T07:17:36.907Z,8.90
2019-03-04T07:20:11.083Z,8.90
2019-03-04T07:22:41.566Z,8.90
2019-03-04T07:25:12.173Z,8.90
2019-03-04T07:27:44.353Z,8.90
2019-03-04T07:30:15.222Z,8.90
2019-03-04T07:32:45.605Z,8.90
2019-03-04T07:35:15.905Z,9.00
2019-03-04T07:37:46.377Z,8.90
2019-03-04T07:40:16.658Z,9.00
2019-03-04T07:42:47.199Z,8.90
2019-03-04T07:45:17.679Z,9.00
2019-03-04T07:47:48.187Z,9.00
2019-03-04T07:50:18.379Z,9.10
2019-03-04T07:52:50.465Z,9.10
2019-03-04T07:55:21.077Z,9.20
2019-03-04T07:57:51.719Z,9.30
2019-03-04T08:00:21.940Z,9.40
2019-03-04T08:02:52.591Z,9.60
2019-03-04T08:05:23.268Z,9.70
2019-03-04T08:07:53.855Z,9.80
2019-03-04T08:10:52.825Z,9.90
2019-03-04T08:13:32.972Z,10.00
2019-03-04T08:16:03.647Z,10.20
2019-03-04T08:18:34.299Z,10.30
2019-03-04T08:21:04.945Z,10.30
2019-03-04T08:23:35.249Z,10.30
2019-03-04T08:26:06.588Z,10.30
2019-03-04T08:28:36.875Z,10.30
2019-03-04T08:31:07.355Z,10.30
2019-03-04T08:33:37.842Z,10.30
2019-03-04T08:36:08.279Z,10.30
2019-03-04T08:38:38.743Z,10.20
2019-03-04T08:41:09.189Z,10.20
2019-03-04T08:43:39.124Z,10.20
2019-03-04T08:46:09.731Z,10.20
2019-03-04T08:48:40.263Z,10.20
2019-03-04T08:51:10.655Z,10.20
2019-03-04T08:53:40.816Z,10.20
2019-03-04T08:56:12.372Z,10.20
2019-03-04T08:58:42.880Z,10.20
2019-03-04T09:01:13.468Z,10.30
2019-03-04T09:03:44.033Z,10.30
2019-03-04T09:06:13.958Z,10.30
2019-03-04T09:08:44.677Z,10.20
2019-03-04T09:11:15.205Z,10.30
2019-03-04T09:13:45.412Z,10.30
2019-03-04T09:16:15.897Z,10.30
2019-03-04T09:18:46.413Z,10.40
2019-03-04T09:21:16.568Z,10.50
2019-03-04T09:23:47.206Z,10.50
2019-03-04T09:26:17.792Z,10.70
2019-03-04T09:28:47.409Z,10.80
2019-03-04T09:31:17.667Z,11.00
2019-03-04T09:33:48.178Z,11.20
2019-03-04T09:36:18.634Z,11.40
2019-03-04T09:38:49.210Z,11.70
2019-03-04T09:41:19.694Z,12.00
2019-03-04T09:43:50.145Z,12.10
2019-03-04T09:46:20.522Z,12.10
2019-03-04T09:48:51.096Z,12.20
2019-03-04T09:51:24.302Z,12.20
2019-03-04T09:53:53.448Z,12.20
2019-03-04T09:56:23.620Z,12.10
2019-03-04T09:58:53.885Z,11.90
2019-03-04T10:01:43.941Z,11.80
2019-03-04T10:05:04.146Z,11.60
2019-03-04T10:08:10.167Z,11.50
2019-03-04T10:11:30.636Z,11.20
2019-03-04T10:14:36.390Z,11.00
2019-03-04T10:17:47.117Z,10.80
2019-03-04T10:20:40.892Z,10.80
2019-03-04T10:23:28.783Z,10.60
2019-03-04T10:26:27.694Z,10.50
2019-03-04T10:29:56.836Z,10.40
2019-03-04T10:33:22.448Z,10.40
2019-03-04T10:36:51.626Z,10.50
2019-03-04T10:39:51.409Z,10.50
2019-03-04T10:43:11.176Z,10.50
2019-03-04T10:46:28.156Z,10.50
2019-03-04T10:48:58.319Z,10.60
2019-03-04T10:51:28.571Z,10.70
2019-03-04T10:53:59.173Z,10.70
2019-03-04T10:56:29.070Z,10.80
2019-03-04T10:58:59.494Z,10.80
2019-03-04T11:01:30.763Z,10.80
2019-03-04T11:04:01.523Z,10.90
2019-03-04T11:06:31.483Z,11.00
2019-03-04T11:09:02.026Z,11.10
2019-03-04T11:11:32.587Z,11.10
2019-03-04T11:14:03.308Z,11.10
2019-03-04T11:16:33.624Z,11.10
2019-03-04T11:19:04.276Z,11.10
2019-03-04T11:21:34.898Z,11.10
2019-03-04T11:24:06.810Z,11.00
2019-03-04T11:26:37.508Z,11.00
2019-03-04T11:29:10.189Z,11.00
2019-03-04T11:31:40.190Z,11.00
2019-03-04T11:34:10.559Z,11.00
2019-03-04T11:36:40.918Z,11.00
2019-03-04T11:39:56.526Z,10.90
2019-03-04T11:42:26.975Z,11.00
2019-03-04T11:44:57.320Z,11.00
2019-03-04T11:47:27.781Z,11.00
2019-03-04T11:49:58.378Z,11.00
2019-03-04T11:52:28.678Z,11.00
2019-03-04T11:54:59.293Z,11.00
2019-03-04T11:57:29.465Z,11.00
2019-03-04T11:59:59.721Z,11.00
2019-03-04T12:02:38.822Z,10.90
2019-03-04T12:05:03.675Z,10.90
2019-03-04T12:07:34.137Z,10.80
2019-03-04T12:10:04.563Z,10.70
2019-03-04T12:12:35.075Z,10.60
2019-03-04T12:15:06.276Z,10.60
2019-03-04T12:17:36.223Z,10.50
2019-03-04T12:20:07.868Z,10.50
2019-03-04T12:22:38.228Z,10.50
2019-03-04T12:25:10.297Z,10.40
2019-03-04T12:27:40.818Z,10.50
2019-03-04T12:30:14.920Z,10.50
2019-03-04T12:32:44.842Z,10.50
2019-03-04T12:35:15.781Z,10.40
2019-03-04T12:37:46.218Z,10.40
2019-03-04T12:40:17.247Z,10.50
2019-03-04T12:42:47.832Z,10.50
2019-03-04T12:45:17.650Z,10.40
2019-03-04T12:47:48.447Z,10.40
2019-03-04T12:50:20.942Z,10.40
2019-03-04T12:52:51.267Z,10.40
2019-03-04T12:55:21.820Z,10.40
2019-03-04T12:57:51.995Z,10.30
2019-03-04T13:00:23.343Z,10.30
2019-03-04T13:02:57.566Z,10.30
2019-03-04T13:05:27.291Z,10.30
2019-03-04T13:07:57.460Z,10.30
2019-03-04T13:10:27.677Z,10.30
2019-03-04T13:12:58.264Z,10.20
2019-03-04T13:15:28.528Z,10.20
2019-03-04T13:17:58.772Z,10.20
2019-03-04T13:20:28.736Z,10.10
2019-03-04T13:22:58.897Z,10.10
2019-03-04T13:25:29.024Z,10.10
2019-03-04T13:28:07.769Z,10.10
2019-03-04T13:30:31.737Z,10.10
2019-03-04T13:33:02.534Z,10.00
2019-03-04T13:35:32.806Z,10.00
2019-03-04T13:38:03.607Z,9.90
2019-03-04T13:40:34.415Z,9.80
2019-03-04T13:43:04.871Z,9.80
2019-03-04T13:45:35.383Z,9.80
2019-03-04T13:48:05.618Z,9.70
2019-03-04T13:50:36.409Z,9.70
2019-03-04T13:53:08.123Z,9.70
2019-03-04T13:55:37.920Z,9.60
2019-03-04T13:58:08.187Z,9.70
2019-03-04T14:00:38.812Z,9.70
2019-03-04T14:03:09.269Z,9.60
2019-03-04T14:05:39.645Z,9.60
2019-03-04T14:08:10.226Z,9.60
2019-03-04T14:10:40.874Z,9.70
2019-03-04T14:13:11.557Z,9.60
2019-03-04T14:15:41.913Z,9.60
2019-03-04T14:18:12.357Z,9.70
2019-03-04T14:20:42.649Z,9.70
2019-03-04T14:23:13.312Z,9.80
2019-03-04T14:25:43.739Z,9.80
2019-03-04T14:28:14.017Z,9.80
2019-03-04T14:30:44.494Z,9.90
2019-03-04T14:33:14.669Z,9.90
2019-03-04T14:35:45.317Z,10.00
2019-03-04T14:38:15.790Z,10.00
2019-03-04T14:40:46.391Z,10.00
2019-03-04T14:43:16.919Z,10.00
2019-03-04T14:45:47.386Z,10.00
2019-03-04T14:48:18.152Z,10.00
2019-03-04T14:50:48.534Z,10.00
2019-03-04T14:53:19.137Z,10.00
2019-03-04T14:55:49.616Z,10.00
2019-03-04T14:58:20.410Z,10.10
2019-03-04T15:00:51.524Z,10.10
2019-03-04T15:03:23.925Z,10.20
2019-03-04T15:05:53.975Z,10.20
2019-03-04T15:08:24.600Z,10.20
2019-03-04T15:10:54.899Z,10.20
2019-03-04T15:13:25.281Z,10.10
2019-03-04T15:16:02.447Z,10.00
2019-03-04T15:18:27.663Z,9.90
2019-03-04T15:20:57.914Z,9.90
2019-03-04T15:23:28.517Z,9.90
2019-03-04T15:25:58.830Z,9.90
2019-03-04T15:28:29.069Z,9.80
2019-03-04T15:31:00.657Z,9.80
2019-03-04T15:33:31.287Z,9.90
2019-03-04T15:36:01.816Z,9.90
2019-03-04T15:38:32.395Z,9.90
2019-03-04T15:41:03.002Z,9.90
2019-03-04T15:43:33.594Z,9.90
2019-03-04T15:46:03.903Z,9.80
2019-03-04T15:48:34.444Z,9.80
2019-03-04T15:51:05.140Z,9.70
2019-03-04T15:53:35.882Z,9.70
2019-03-04T15:56:06.726Z,9.60
2019-03-04T15:58:37.365Z,9.60
2019-03-04T16:01:10.332Z,9.60
2019-03-04T16:03:40.896Z,9.50
2019-03-04T16:06:11.578Z,9.40
2019-03-04T16:08:43.924Z,9.40
2019-03-04T16:11:14.424Z,9.40
2019-03-04T16:13:52.688Z,9.30
2019-03-04T16:16:17.046Z,9.30
2019-03-04T16:18:47.260Z,9.40
2019-03-04T16:21:17.649Z,9.40
2019-03-04T16:23:48.506Z,9.40
2019-03-04T16:26:18.595Z,9.50
2019-03-04T16:28:49.290Z,9.50
2019-03-04T16:31:19.505Z,9.60
2019-03-04T16:33:49.416Z,9.60
2019-03-04T16:36:20.995Z,9.70
2019-03-04T16:38:51.449Z,9.80
2019-03-04T16:41:21.888Z,10.00
2019-03-04T16:43:52.274Z,10.10
2019-03-04T16:46:22.852Z,10.30
2019-03-04T16:48:53.129Z,10.40
2019-03-04T16:51:23.788Z,10.40
2019-03-04T16:53:54.330Z,10.40
2019-03-04T16:56:24.622Z,10.40
2019-03-04T16:58:55.266Z,10.30
2019-03-04T17:01:25.272Z,10.00
2019-03-04T17:03:55.435Z,9.50
2019-03-04T17:06:25.752Z,9.10
2019-03-04T17:08:56.208Z,8.70
2019-03-04T17:11:26.798Z,8.40
2019-03-04T17:13:57.218Z,8.10
2019-03-04T17:16:27.689Z,7.70
2019-03-04T17:18:58.062Z,7.30
2019-03-04T17:21:28.621Z,7.10
2019-03-04T17:23:59.223Z,7.00
2019-03-04T17:26:29.836Z,6.80
2019-03-04T17:29:00.404Z,6.40
2019-03-04T17:31:31.041Z,6.20
2019-03-04T17:34:01.521Z,6.10
2019-03-04T17:36:31.812Z,6.00
2019-03-04T17:39:02.043Z,6.00
2019-03-04T17:41:32.250Z,6.00
2019-03-04T17:44:02.506Z,5.90
2019-03-04T17:46:32.966Z,5.80
2019-03-04T17:49:03.466Z,5.80
2019-03-04T17:51:33.705Z,5.80
2019-03-04T17:54:03.878Z,5.80
2019-03-04T17:56:34.123Z,5.90
2019-03-04T17:59:04.228Z,5.90
2019-03-04T18:01:34.798Z,5.90
2019-03-04T18:04:05.092Z,5.90
2019-03-04T18:06:35.382Z,5.90
2019-03-04T18:09:07.132Z,5.90
2019-03-04T18:11:37.478Z,5.90
2019-03-04T18:14:09.569Z,5.80
2019-03-04T18:16:39.743Z,5.80
2019-03-04T18:19:10.436Z,5.90
2019-03-04T18:21:40.618Z,5.80
2019-03-04T18:24:11.154Z,5.90
2019-03-04T18:26:58.618Z,5.90
2019-03-04T18:29:58.310Z,5.90
2019-03-04T18:33:23.398Z,5.90
2019-03-04T18:36:25.024Z,5.90
2019-03-04T18:39:39.800Z,5.90
2019-03-04T18:42:50.720Z,5.80
2019-03-04T18:45:50.856Z,5.80
2019-03-04T18:48:56.172Z,5.80
2019-03-04T18:51:26.930Z,5.70
2019-03-04T18:53:59.754Z,5.70
2019-03-04T18:56:29.990Z,5.70
2019-03-04T18:59:00.328Z,5.70
2019-03-04T19:01:30.916Z,5.70
2019-03-04T19:04:01.437Z,5.60
2019-03-04T19:06:32.010Z,5.60
2019-03-04T19:09:01.857Z,5.60
2019-03-04T19:11:32.542Z,5.50
2019-03-04T19:14:03.143Z,5.50
2019-03-04T19:16:33.457Z,5.50
2019-03-04T19:19:04.010Z,5.50
2019-03-04T19:21:34.245Z,5.40
2019-03-04T19:24:04.200Z,5.40
2019-03-04T19:26:34.635Z,5.40
2019-03-04T19:29:04.458Z,5.40
2019-03-04T19:31:35.022Z,5.40
2019-03-04T19:34:05.342Z,5.40
2019-03-04T19:36:35.871Z,5.40
2019-03-04T19:39:08.412Z,5.40
2019-03-04T19:41:38.994Z,5.40
2019-03-04T19:44:09.603Z,5.40
2019-03-04T19:46:40.185Z,5.30
2019-03-04T19:49:10.882Z,5.40
2019-03-04T19:51:41.404Z,5.30
2019-03-04T19:54:11.716Z,5.30
2019-03-04T19:56:42.008Z,5.30
2019-03-04T19:59:12.689Z,5.30
2019-03-04T20:01:43.088Z,5.30
2019-03-04T20:04:13.694Z,5.30
2019-03-04T20:06:43.983Z,5.30
2019-03-04T20:09:14.715Z,5.30
2019-03-04T20:11:45.091Z,5.30
2019-03-04T20:14:15.227Z,5.20
2019-03-04T20:16:45.888Z,5.20
2019-03-04T20:19:16.090Z,5.20
2019-03-04T20:21:46.460Z,5.10
2019-03-04T20:24:16.960Z,5.10
2019-03-04T20:26:47.201Z,5.20
2019-03-04T20:29:17.963Z,5.20
2019-03-04T20:31:48.424Z,5.20
2019-03-04T20:34:18.595Z,5.20
2019-03-04T20:36:49.128Z,5.30
2019-03-04T20:39:20.205Z,5.30
2019-03-04T20:41:50.508Z,5.20
2019-03-04T20:44:20.410Z,5.30
2019-03-04T20:46:50.672Z,5.30
2019-03-04T20:49:21.077Z,5.30
2019-03-04T20:51:50.876Z,5.40
2019-03-04T20:54:21.512Z,5.40
2019-03-04T20:56:51.664Z,5.40
2019-03-04T20:59:21.960Z,5.40
2019-03-04T21:01:52.600Z,5.30
2019-03-04T21:04:22.844Z,5.40
2019-03-04T21:06:53.152Z,5.40
2019-03-04T21:09:24.020Z,5.40
2019-03-04T21:11:54.156Z,5.40
2019-03-04T21:14:24.782Z,5.40
2019-03-04T21:16:55.319Z,5.50
2019-03-04T21:19:25.481Z,5.50
2019-03-04T21:21:55.749Z,5.50
2019-03-04T21:24:26.266Z,5.50
2019-03-04T21:26:56.925Z,5.60
2019-03-04T21:29:45.532Z,5.60
2019-03-04T21:32:45.989Z,5.60
2019-03-04T21:36:14.349Z,5.60
2019-03-04T21:38:44.246Z,5.50
2019-03-04T21:41:25.922Z,5.40
2019-03-04T21:44:39.534Z,5.40
2019-03-04T21:47:28.485Z,5.30
2019-03-04T21:49:58.758Z,5.20
2019-03-04T21:53:05.461Z,5.10
2019-03-04T21:55:46.904Z,5.00
2019-03-04T21:58:17.276Z,5.00
2019-03-04T22:00:50.667Z,4.90
2019-03-04T22:03:25.800Z,4.80
2019-03-04T22:05:55.953Z,4.80
2019-03-04T22:08:26.231Z,4.70
2019-03-04T22:10:56.596Z,4.80
2019-03-04T22:13:26.914Z,4.80
2019-03-04T22:15:57.143Z,4.70
2019-03-04T22:18:27.787Z,4.70
2019-03-04T22:20:58.254Z,4.70
2019-03-04T22:23:28.824Z,4.70
2019-03-04T22:26:02.078Z,4.70
2019-03-04T22:28:31.430Z,4.70
2019-03-04T22:31:01.955Z,4.70
2019-03-04T22:33:32.597Z,4.80
2019-03-04T22:36:02.841Z,4.80
2019-03-04T22:38:33.410Z,4.70
2019-03-04T22:41:03.382Z,4.70
2019-03-04T22:43:34.015Z,4.70
2019-03-04T22:46:04.799Z,4.70
2019-03-04T22:48:35.307Z,4.60
2019-03-04T22:51:05.803Z,4.70
2019-03-04T22:53:36.051Z,4.60
2019-03-04T22:56:06.596Z,4.70
2019-03-04T22:58:36.987Z,4.70
2019-03-04T23:01:37.179Z,4.60
2019-03-04T23:04:40.578Z,4.60
2019-03-04T23:07:13.057Z,4.70
2019-03-04T23:10:07.835Z,4.70
2019-03-04T23:12:43.779Z,4.70
2019-03-04T23:15:17.199Z,4.70
2019-03-04T23:17:47.417Z,4.70
2019-03-04T23:20:17.918Z,4.70
2019-03-04T23:22:48.277Z,4.80
2019-03-04T23:25:18.499Z,4.80
2019-03-04T23:27:48.983Z,4.70
2019-03-04T23:30:19.395Z,4.80
2019-03-04T23:32:49.683Z,4.70
2019-03-04T23:35:19.908Z,4.80
2019-03-04T23:37:50.012Z,4.80
2019-03-04T23:40:20.503Z,4.80
2019-03-04T23:42:50.992Z,4.90
2019-03-04T23:45:21.542Z,4.90
2019-03-04T23:47:52.091Z,4.90
2019-03-04T23:50:23.573Z,4.90
2019-03-04T23:52:54.184Z,4.90
2019-03-04T23:55:24.369Z,4.90
2019-03-04T23:57:54.910Z,4.90
